Terminal Aerodrome Forecast
Issued by NWS

Home | Current Version | Previous Version | Text Only | Print | Product List | Glossary On
Versions: 1 2 3 4 5 6 7 8 9 10 11 12 13 14 15
000
FTUS45 KBYZ 281731
TAFLVM
TAF
KLVM 281731Z 2818/2918 13006KT P6SM SKC
     FM282000 05006KT P6SM VCTS BKN080CB
     FM290000 10009KT P6SM FEW100
     FM290600 VRB05KT P6SM SKC=

USA.gov is the U.S. government's official web portal to all federal, state and local government web resources and services.